createdAt,value
2017-12-12T00:00:35.351Z,42.87
2017-12-12T00:01:35.827Z,42.86
2017-12-12T00:03:36.771Z,42.82
2017-12-12T00:04:37.238Z,42.77
2017-12-12T00:06:38.188Z,42.76
2017-12-12T00:07:38.661Z,42.78
2017-12-12T00:08:39.133Z,42.79
2017-12-12T00:09:39.606Z,42.77
2017-12-12T00:10:40.077Z,42.78
2017-12-12T00:11:40.545Z,42.74
2017-12-12T00:12:41.023Z,42.73
2017-12-12T00:14:42.160Z,42.67
2017-12-12T00:15:42.435Z,42.64
2017-12-12T00:17:43.385Z,42.65
2017-12-12T00:20:44.964Z,42.61
2017-12-12T00:21:45.306Z,42.60
2017-12-12T00:22:45.742Z,42.56
2017-12-12T00:24:46.693Z,42.56
2017-12-12T00:25:47.166Z,42.55
2017-12-12T00:26:47.631Z,42.50
2017-12-12T00:27:48.115Z,42.50
2017-12-12T00:28:48.585Z,42.48
2017-12-12T00:30:49.529Z,42.43
2017-12-12T00:31:50.000Z,42.39
2017-12-12T00:33:50.940Z,42.34
2017-12-12T00:34:51.581Z,42.31
2017-12-12T00:35:51.891Z,42.29
2017-12-12T00:36:52.370Z,42.28
2017-12-12T00:38:53.308Z,42.27
2017-12-12T00:39:53.810Z,42.28
2017-12-12T00:40:54.251Z,42.28
2017-12-12T00:41:54.889Z,42.30
2017-12-12T00:42:55.197Z,42.30
2017-12-12T00:43:55.669Z,42.30
2017-12-12T00:44:56.137Z,42.30
2017-12-12T00:45:56.620Z,42.31
2017-12-12T00:47:58.007Z,42.30
2017-12-12T00:48:58.029Z,42.28
2017-12-12T00:50:10.437Z,42.28
2017-12-12T00:51:59.442Z,42.25
2017-12-12T00:53:00.086Z,42.23
2017-12-12T00:54:00.392Z,42.21
2017-12-12T00:55:00.867Z,42.20
2017-12-12T00:56:01.332Z,42.19
2017-12-12T00:57:01.813Z,42.17
2017-12-12T00:59:02.767Z,42.17
2017-12-12T01:03:04.637Z,42.16
2017-12-12T01:04:05.115Z,42.17
2017-12-12T01:05:05.586Z,42.15
2017-12-12T01:06:06.059Z,42.13
2017-12-12T01:07:06.524Z,42.14
2017-12-12T01:08:07.030Z,42.14
2017-12-12T01:09:07.478Z,42.11
2017-12-12T01:10:07.948Z,42.09
2017-12-12T01:12:08.894Z,42.06
2017-12-12T01:13:09.363Z,42.07
2017-12-12T01:14:09.830Z,42.05
2017-12-12T01:15:10.339Z,42.05
2017-12-12T01:17:11.251Z,42.04
2017-12-12T01:18:11.726Z,42.02
2017-12-12T01:19:12.197Z,42.02
2017-12-12T01:21:13.140Z,42.04
2017-12-12T01:22:13.777Z,41.97
2017-12-12T01:23:14.246Z,41.96
2017-12-12T01:24:14.725Z,41.96
2017-12-12T01:25:15.022Z,41.98
2017-12-12T01:26:15.508Z,41.98
2017-12-12T01:27:15.975Z,41.97
2017-12-12T01:28:16.447Z,41.95
2017-12-12T01:29:16.916Z,41.94
2017-12-12T01:30:17.383Z,41.90
2017-12-12T01:32:18.493Z,41.88
2017-12-12T01:33:18.804Z,41.86
2017-12-12T01:35:19.996Z,41.82
2017-12-12T01:36:20.223Z,41.81
2017-12-12T01:37:20.686Z,41.82
2017-12-12T01:38:21.165Z,41.79
2017-12-12T01:39:21.639Z,41.79
2017-12-12T01:41:22.575Z,41.76
2017-12-12T01:43:23.560Z,41.75
2017-12-12T01:44:23.997Z,41.75
2017-12-12T01:45:36.539Z,41.74
2017-12-12T01:46:24.941Z,41.70
2017-12-12T01:47:25.413Z,41.69
2017-12-12T01:48:25.908Z,41.69
2017-12-12T01:49:26.356Z,41.69
2017-12-12T01:51:27.300Z,41.67
2017-12-12T01:52:27.772Z,41.67
2017-12-12T01:53:28.245Z,41.67
2017-12-12T01:54:28.715Z,41.68
2017-12-12T01:55:29.346Z,41.68
2017-12-12T01:56:29.685Z,41.69
2017-12-12T01:58:30.635Z,41.70
2017-12-12T02:00:31.549Z,41.69
2017-12-12T02:01:32.018Z,41.72
2017-12-12T02:02:32.483Z,41.74
2017-12-12T02:03:32.961Z,41.76
2017-12-12T02:04:33.593Z,41.77
2017-12-12T02:05:45.572Z,41.83
2017-12-12T02:06:34.377Z,41.83
2017-12-12T02:07:34.849Z,41.83
2017-12-12T02:08:35.484Z,41.78
2017-12-12T02:09:35.791Z,41.78
2017-12-12T02:10:36.260Z,41.76
2017-12-12T02:11:36.737Z,41.76
2017-12-12T02:12:37.214Z,41.79
2017-12-12T02:13:37.672Z,41.79
2017-12-12T02:14:38.151Z,41.77
2017-12-12T02:16:39.094Z,41.76
2017-12-12T02:17:39.565Z,41.77
2017-12-12T02:18:40.031Z,41.76
2017-12-12T02:20:52.509Z,41.75
2017-12-12T02:21:41.450Z,41.77
2017-12-12T02:22:41.930Z,41.75
2017-12-12T02:23:42.393Z,41.77
2017-12-12T02:24:42.867Z,41.73
2017-12-12T02:25:43.337Z,41.71
2017-12-12T02:26:43.809Z,41.73
2017-12-12T02:28:44.775Z,41.74
2017-12-12T02:29:45.226Z,41.72
2017-12-12T02:30:45.699Z,41.66
2017-12-12T02:31:46.168Z,41.63
2017-12-12T02:33:47.117Z,41.62
2017-12-12T02:34:47.581Z,41.60
2017-12-12T02:35:48.053Z,41.59
2017-12-12T02:37:48.997Z,41.55
2017-12-12T02:38:49.628Z,41.55
2017-12-12T02:39:49.934Z,41.55
2017-12-12T02:40:50.583Z,41.54
2017-12-12T02:41:50.884Z,41.54
2017-12-12T02:42:51.349Z,41.51
2017-12-12T02:43:51.827Z,41.50
2017-12-12T02:44:52.298Z,41.50
2017-12-12T02:46:53.244Z,41.52
2017-12-12T02:47:53.739Z,41.51
2017-12-12T02:48:54.186Z,41.50
2017-12-12T02:50:58.436Z,41.47
2017-12-12T02:51:55.593Z,41.49
2017-12-12T02:52:56.064Z,41.52
2017-12-12T02:54:57.037Z,41.54
2017-12-12T02:55:57.486Z,41.56
2017-12-12T02:57:58.430Z,41.54
2017-12-12T02:58:58.908Z,41.56
2017-12-12T02:59:59.371Z,41.54
2017-12-12T03:00:59.842Z,41.52
2017-12-12T03:02:00.313Z,41.49
2017-12-12T03:03:00.814Z,41.47
2017-12-12T03:04:01.256Z,41.45
2017-12-12T03:05:01.729Z,41.40
2017-12-12T03:06:02.200Z,41.41
2017-12-12T03:11:04.558Z,41.38
2017-12-12T03:13:05.494Z,41.36
2017-12-12T03:14:05.974Z,41.34
2017-12-12T03:15:06.600Z,41.30
2017-12-12T03:16:06.915Z,41.28
2017-12-12T03:17:07.551Z,41.25
2017-12-12T03:18:08.020Z,41.25
2017-12-12T03:21:09.299Z,41.23
2017-12-12T03:22:10.128Z,41.24
2017-12-12T03:23:10.214Z,41.23
2017-12-12T03:24:10.680Z,41.21
2017-12-12T03:28:12.797Z,41.25
2017-12-12T03:29:13.436Z,41.24
2017-12-12T03:30:13.508Z,41.21
2017-12-12T03:31:13.985Z,41.23
2017-12-12T03:33:14.930Z,41.27
2017-12-12T03:34:15.399Z,41.32
2017-12-12T03:37:16.813Z,41.33
2017-12-12T03:38:17.277Z,41.34
2017-12-12T03:39:17.756Z,41.33
2017-12-12T03:40:18.226Z,41.31
2017-12-12T03:41:19.122Z,41.34
2017-12-12T03:42:19.214Z,41.37
2017-12-12T03:43:19.802Z,41.30
2017-12-12T03:44:20.111Z,41.31
2017-12-12T03:45:20.582Z,41.29
2017-12-12T03:46:21.055Z,41.26
2017-12-12T03:47:21.550Z,41.28
2017-12-12T03:48:21.996Z,41.27
2017-12-12T03:49:22.464Z,41.24
2017-12-12T03:51:23.408Z,41.27
2017-12-12T03:52:23.880Z,41.28
2017-12-12T03:54:24.823Z,41.22
2017-12-12T03:55:25.295Z,41.20
2017-12-12T03:56:25.760Z,41.19
2017-12-12T03:59:27.337Z,41.19
2017-12-12T04:00:27.650Z,41.16
2017-12-12T04:02:28.594Z,41.15
2017-12-12T04:03:29.061Z,41.13
2017-12-12T04:04:29.536Z,41.17
2017-12-12T04:05:30.405Z,41.18
2017-12-12T04:06:30.478Z,41.13
2017-12-12T04:08:31.814Z,41.19
2017-12-12T04:09:31.891Z,41.21
2017-12-12T04:11:32.836Z,41.16
2017-12-12T04:13:33.942Z,41.14
2017-12-12T04:15:34.742Z,41.17
2017-12-12T04:16:35.188Z,41.14
2017-12-12T04:17:35.819Z,41.19
2017-12-12T04:18:36.127Z,41.19
2017-12-12T04:19:36.603Z,41.22
2017-12-12T04:21:37.544Z,41.32
2017-12-12T04:22:38.016Z,41.36
2017-12-12T04:23:38.487Z,41.36
2017-12-12T04:25:39.430Z,41.45
2017-12-12T04:26:39.919Z,41.51
2017-12-12T04:27:40.369Z,41.56
2017-12-12T04:29:41.337Z,41.65
2017-12-12T04:30:41.806Z,41.65
2017-12-12T04:31:42.255Z,41.70
2017-12-12T04:32:42.726Z,41.70
2017-12-12T04:33:43.198Z,41.73
2017-12-12T04:34:43.668Z,41.76
2017-12-12T04:37:45.080Z,41.84
2017-12-12T04:39:46.021Z,41.88
2017-12-12T04:40:46.495Z,41.91
2017-12-12T04:41:46.964Z,41.92
2017-12-12T04:42:47.434Z,41.89
2017-12-12T04:43:48.063Z,41.87
2017-12-12T04:44:48.537Z,41.81
2017-12-12T04:45:48.872Z,41.77
2017-12-12T04:46:49.321Z,41.73
2017-12-12T04:47:50.181Z,41.69
2017-12-12T04:48:50.266Z,41.67
2017-12-12T04:50:51.591Z,41.61
2017-12-12T04:52:52.146Z,41.70
2017-12-12T04:53:52.781Z,41.70
2017-12-12T04:54:53.087Z,41.68
2017-12-12T04:55:53.557Z,41.66
2017-12-12T04:56:54.023Z,41.63
2017-12-12T04:57:54.500Z,41.66
2017-12-12T04:58:54.970Z,41.68
2017-12-12T05:00:56.286Z,41.76
2017-12-12T05:01:56.379Z,41.71
2017-12-12T05:02:56.857Z,41.67
2017-12-12T05:03:57.319Z,41.66
2017-12-12T05:04:57.826Z,41.69
2017-12-12T05:06:58.765Z,41.73
2017-12-12T05:07:59.208Z,41.74
2017-12-12T05:10:00.150Z,41.76
2017-12-12T05:11:00.622Z,41.78
2017-12-12T05:12:01.093Z,41.80
2017-12-12T05:15:02.505Z,41.86
2017-12-12T05:17:03.607Z,41.93
2017-12-12T05:18:03.919Z,41.96
2017-12-12T05:19:04.412Z,42.02
2017-12-12T05:20:04.891Z,42.10
2017-12-12T05:21:05.332Z,42.13
2017-12-12T05:22:06.025Z,42.23
2017-12-12T05:23:06.267Z,42.27
2017-12-12T05:24:18.677Z,42.31
2017-12-12T05:25:07.216Z,42.28
2017-12-12T05:28:08.628Z,42.37
2017-12-12T05:29:09.129Z,42.39
2017-12-12T05:30:09.569Z,42.44
2017-12-12T05:31:10.040Z,42.49
2017-12-12T05:32:10.510Z,42.53
2017-12-12T05:33:10.976Z,42.58
2017-12-12T05:35:11.922Z,42.71
2017-12-12T05:36:12.394Z,42.72
2017-12-12T05:37:12.867Z,42.79
2017-12-12T05:38:13.716Z,42.79
2017-12-12T05:39:13.807Z,42.84
2017-12-12T05:40:14.271Z,42.86
2017-12-12T05:41:14.774Z,42.95
2017-12-12T05:42:15.244Z,42.97
2017-12-12T05:43:15.690Z,43.04
2017-12-12T05:44:16.154Z,43.05
2017-12-12T05:45:16.631Z,43.10
2017-12-12T05:46:17.096Z,43.14
2017-12-12T05:48:18.044Z,43.18
2017-12-12T05:49:18.517Z,43.22
2017-12-12T05:50:18.980Z,43.28
2017-12-12T05:51:19.450Z,43.28
2017-12-12T05:52:19.927Z,43.29
2017-12-12T05:53:20.398Z,43.23
2017-12-12T05:54:20.868Z,43.24
2017-12-12T05:55:21.340Z,43.24
2017-12-12T05:56:21.810Z,43.26
2017-12-12T05:57:22.282Z,43.25
2017-12-12T06:01:24.164Z,43.23
2017-12-12T06:02:24.797Z,43.21
2017-12-12T06:04:25.749Z,43.15
2017-12-12T06:05:26.050Z,43.16
2017-12-12T06:06:26.511Z,43.13
2017-12-12T06:07:26.987Z,43.15
2017-12-12T06:08:27.458Z,43.16
2017-12-12T06:10:28.402Z,43.15
2017-12-12T06:11:40.703Z,43.12
2017-12-12T06:12:29.341Z,43.15
2017-12-12T06:13:29.812Z,43.15
2017-12-12T06:14:30.277Z,43.13
2017-12-12T06:15:30.752Z,43.10
2017-12-12T06:17:31.693Z,43.08
2017-12-12T06:18:32.187Z,43.09
2017-12-12T06:19:32.662Z,43.10
2017-12-12T06:20:33.107Z,43.10
2017-12-12T06:21:33.571Z,43.03
2017-12-12T06:23:34.518Z,43.04
2017-12-12T06:26:35.961Z,42.97
2017-12-12T06:27:36.433Z,42.95
2017-12-12T06:28:36.870Z,42.95
2017-12-12T06:29:37.341Z,42.97
2017-12-12T06:31:38.310Z,43.04
2017-12-12T06:32:38.747Z,42.99
2017-12-12T06:33:39.226Z,42.98
2017-12-12T06:34:39.696Z,43.00
2017-12-12T06:35:40.188Z,42.95
2017-12-12T06:36:40.679Z,42.92
2017-12-12T06:37:41.099Z,42.84
2017-12-12T06:38:41.572Z,42.74
2017-12-12T06:40:42.519Z,42.75
2017-12-12T06:42:43.482Z,42.65
2017-12-12T06:43:43.924Z,42.60
2017-12-12T06:44:44.402Z,42.56
2017-12-12T06:45:44.874Z,42.53
2017-12-12T06:46:45.347Z,42.51
2017-12-12T06:47:45.834Z,42.53
2017-12-12T06:50:47.244Z,42.59
2017-12-12T06:51:47.695Z,42.53
2017-12-12T06:52:48.873Z,42.49
2017-12-12T06:53:48.638Z,42.54
2017-12-12T06:54:49.164Z,42.50
2017-12-12T06:55:49.739Z,42.43
2017-12-12T06:56:50.212Z,42.38
2017-12-12T06:58:50.986Z,42.45
2017-12-12T06:59:51.621Z,42.45
2017-12-12T07:01:52.426Z,42.38
2017-12-12T07:03:53.510Z,42.34
2017-12-12T07:05:54.309Z,42.29
2017-12-12T07:06:54.799Z,42.30
2017-12-12T07:07:55.248Z,42.24
2017-12-12T07:09:56.167Z,42.19
2017-12-12T07:10:56.638Z,42.20
2017-12-12T07:11:57.266Z,42.25
2017-12-12T07:12:57.570Z,42.21
2017-12-12T07:13:58.051Z,42.16
2017-12-12T07:15:58.982Z,42.09
2017-12-12T07:16:59.462Z,42.07
2017-12-12T07:17:59.931Z,42.04
2017-12-12T07:19:00.435Z,42.04
2017-12-12T07:22:01.844Z,42.05
2017-12-12T07:23:02.284Z,42.01
2017-12-12T07:25:03.225Z,42.06
2017-12-12T07:26:03.695Z,42.02
2017-12-12T07:29:05.128Z,41.93
2017-12-12T07:30:05.587Z,41.87
2017-12-12T07:32:06.520Z,41.84
2017-12-12T07:33:07.039Z,41.86
2017-12-12T07:35:08.099Z,41.86
2017-12-12T07:36:08.399Z,41.83
2017-12-12T07:40:10.286Z,41.73
2017-12-12T07:41:10.749Z,41.71
2017-12-12T07:43:11.689Z,41.70
2017-12-12T07:44:23.796Z,41.68
2017-12-12T07:45:12.806Z,41.68
2017-12-12T07:46:13.134Z,41.64
2017-12-12T07:47:13.742Z,41.62
2017-12-12T07:48:14.049Z,41.61
2017-12-12T07:49:14.513Z,41.60
2017-12-12T07:50:14.983Z,41.62
2017-12-12T07:51:15.484Z,41.60
2017-12-12T07:52:15.954Z,41.60
2017-12-12T07:53:16.397Z,41.57
2017-12-12T07:54:16.875Z,41.57
2017-12-12T07:55:17.337Z,41.58
2017-12-12T07:57:18.287Z,41.60
2017-12-12T07:58:18.779Z,41.61
2017-12-12T08:00:19.699Z,41.52
2017-12-12T08:01:20.169Z,41.53
2017-12-12T08:02:20.641Z,41.51
2017-12-12T08:03:21.140Z,41.53
2017-12-12T08:05:22.053Z,41.57
2017-12-12T08:06:22.523Z,41.58
2017-12-12T08:07:23.040Z,41.66
2017-12-12T08:08:23.629Z,41.71
2017-12-12T08:09:23.929Z,41.69
2017-12-12T08:11:25.039Z,41.67
2017-12-12T08:12:25.348Z,41.71
2017-12-12T08:14:26.283Z,41.81
2017-12-12T08:15:26.761Z,41.85
2017-12-12T08:16:27.230Z,41.88
2017-12-12T08:17:27.695Z,41.87
2017-12-12T08:18:28.177Z,41.89
2017-12-12T08:19:28.806Z,41.93
2017-12-12T08:20:29.109Z,41.99
2017-12-12T08:21:29.585Z,42.01
2017-12-12T08:22:30.049Z,42.02
2017-12-12T08:25:31.469Z,42.01
2017-12-12T08:26:31.974Z,41.97
2017-12-12T08:27:32.412Z,41.97
2017-12-12T08:28:32.881Z,42.01
2017-12-12T08:29:33.347Z,42.09
2017-12-12T08:30:33.824Z,42.11
2017-12-12T08:32:34.765Z,42.14
2017-12-12T08:33:35.262Z,42.16
2017-12-12T08:35:36.204Z,42.12
2017-12-12T08:36:36.680Z,42.07
2017-12-12T08:39:38.058Z,42.03
2017-12-12T08:41:39.166Z,42.03
2017-12-12T08:42:39.682Z,42.02
2017-12-12T08:43:40.169Z,42.04
2017-12-12T08:44:40.588Z,42.03
2017-12-12T08:45:40.914Z,42.03
2017-12-12T08:46:41.385Z,41.98
2017-12-12T08:48:42.305Z,41.96
2017-12-12T08:50:43.271Z,41.92
2017-12-12T08:52:44.190Z,41.99
2017-12-12T08:53:44.654Z,41.98
2017-12-12T08:54:45.134Z,41.95
2017-12-12T08:55:45.599Z,41.92
2017-12-12T08:56:46.076Z,41.88
2017-12-12T08:58:47.020Z,41.87
2017-12-12T08:59:47.547Z,41.83
2017-12-12T09:02:48.904Z,41.81
2017-12-12T09:05:50.313Z,41.77
2017-12-12T09:06:50.803Z,41.77
2017-12-12T09:08:02.901Z,41.73
2017-12-12T09:08:51.739Z,41.71
2017-12-12T09:09:52.253Z,41.69
2017-12-12T09:10:53.320Z,41.68
2017-12-12T09:11:53.323Z,41.66
2017-12-12T09:12:53.615Z,41.65
2017-12-12T09:14:54.583Z,41.66
2017-12-12T09:18:56.490Z,41.69
2017-12-12T09:19:56.918Z,41.69
2017-12-12T09:20:57.777Z,41.69
2017-12-12T09:21:57.868Z,41.67
2017-12-12T09:23:59.073Z,41.64
2017-12-12T09:24:59.455Z,41.63
2017-12-12T09:25:59.786Z,41.67
2017-12-12T09:27:00.314Z,41.69
2017-12-12T09:28:00.746Z,41.65
2017-12-12T09:29:01.203Z,41.64
2017-12-12T09:30:01.645Z,41.59
2017-12-12T09:31:02.117Z,41.59
2017-12-12T09:33:03.082Z,41.59
2017-12-12T09:34:03.525Z,41.64
2017-12-12T09:36:04.474Z,41.73
2017-12-12T09:37:04.946Z,41.69
2017-12-12T09:38:05.419Z,41.63
2017-12-12T09:39:05.921Z,41.65
2017-12-12T09:40:06.542Z,41.63
2017-12-12T09:41:06.834Z,41.61
2017-12-12T09:42:07.469Z,41.57
2017-12-12T09:43:19.920Z,41.61
2017-12-12T09:44:08.409Z,41.57
2017-12-12T09:46:09.195Z,41.58
2017-12-12T09:47:09.670Z,41.65
2017-12-12T09:49:10.637Z,41.67
2017-12-12T09:50:11.085Z,41.62
2017-12-12T09:51:11.558Z,41.56
2017-12-12T09:52:12.030Z,41.53
2017-12-12T09:53:12.896Z,41.49
2017-12-12T09:54:24.914Z,41.47
2017-12-12T09:55:13.447Z,41.48
2017-12-12T09:56:14.315Z,41.42
2017-12-12T09:57:14.422Z,41.40
2017-12-12T09:58:14.861Z,41.45
2017-12-12T09:59:15.358Z,41.48
2017-12-12T10:00:15.809Z,41.53
2017-12-12T10:01:16.278Z,41.56
2017-12-12T10:03:17.247Z,41.51
2017-12-12T10:04:17.703Z,41.47
2017-12-12T10:05:18.163Z,41.46
2017-12-12T10:07:19.115Z,41.44
2017-12-12T10:08:19.698Z,41.47
2017-12-12T10:10:20.525Z,41.45
2017-12-12T10:11:21.171Z,41.41
2017-12-12T10:12:21.479Z,41.38
2017-12-12T10:15:34.938Z,41.34
2017-12-12T10:16:23.404Z,41.32
2017-12-12T10:17:23.834Z,41.35
2017-12-12T10:18:24.314Z,41.40
2017-12-12T10:21:25.726Z,41.34
2017-12-12T10:23:26.677Z,41.31
2017-12-12T10:24:27.151Z,41.31
2017-12-12T10:26:39.929Z,41.33
2017-12-12T10:27:28.726Z,41.30
2017-12-12T10:28:29.035Z,41.28
2017-12-12T10:29:29.508Z,41.27
2017-12-12T10:31:30.463Z,41.24
2017-12-12T10:32:30.964Z,41.25
2017-12-12T10:33:31.405Z,41.26
2017-12-12T10:34:31.880Z,41.27
2017-12-12T10:35:32.353Z,41.29
2017-12-12T10:39:34.412Z,41.26
2017-12-12T10:40:34.719Z,41.24
2017-12-12T10:41:35.185Z,41.23
2017-12-12T10:42:35.827Z,41.20
2017-12-12T10:43:36.301Z,41.17
2017-12-12T10:44:36.613Z,41.15
2017-12-12T10:46:37.561Z,41.13
2017-12-12T10:47:38.024Z,41.12
2017-12-12T10:50:39.452Z,41.03
2017-12-12T10:51:40.088Z,41.02
2017-12-12T10:52:40.397Z,41.00
2017-12-12T10:53:41.028Z,40.98
2017-12-12T10:56:42.293Z,40.86
2017-12-12T10:57:42.764Z,40.85
2017-12-12T10:58:43.456Z,40.84
2017-12-12T10:59:43.711Z,40.82
2017-12-12T11:00:44.185Z,40.82
2017-12-12T11:01:44.668Z,40.81
2017-12-12T11:02:45.131Z,40.81
2017-12-12T11:03:45.605Z,40.81
2017-12-12T11:05:47.387Z,40.81
2017-12-12T11:06:47.022Z,40.80
2017-12-12T11:09:48.472Z,40.81
2017-12-12T11:10:48.931Z,40.80
2017-12-12T11:11:49.782Z,40.79
2017-12-12T11:12:49.858Z,40.77
2017-12-12T11:14:01.969Z,40.78
2017-12-12T11:14:50.812Z,40.77
2017-12-12T11:15:51.310Z,40.79
2017-12-12T11:16:51.758Z,40.82
2017-12-12T11:17:52.232Z,40.81
2017-12-12T11:18:52.704Z,40.80
2017-12-12T11:19:53.171Z,40.77
2017-12-12T11:20:53.687Z,40.72
2017-12-12T11:22:54.758Z,40.75
2017-12-12T11:23:55.066Z,40.76
2017-12-12T11:24:55.567Z,40.81
2017-12-12T11:25:56.026Z,40.81
2017-12-12T11:26:56.487Z,40.81
2017-12-12T11:27:56.991Z,40.89
2017-12-12T11:28:57.442Z,40.89
2017-12-12T11:30:58.407Z,40.88
2017-12-12T11:31:58.860Z,40.84
2017-12-12T11:32:59.527Z,40.81
2017-12-12T11:34:00.217Z,40.79
2017-12-12T11:35:00.314Z,40.80
2017-12-12T11:36:00.747Z,40.81
2017-12-12T11:37:01.235Z,40.84
2017-12-12T11:38:01.700Z,40.86
2017-12-12T11:39:02.574Z,40.84
2017-12-12T11:40:03.033Z,40.85
2017-12-12T11:41:03.115Z,40.79
2017-12-12T11:42:03.594Z,40.74
2017-12-12T11:43:04.070Z,40.74
2017-12-12T11:44:04.542Z,40.76
2017-12-12T11:45:05.017Z,40.74
2017-12-12T11:46:05.527Z,40.78
2017-12-12T11:47:05.966Z,40.80
2017-12-12T11:48:06.437Z,40.75
2017-12-12T11:49:06.940Z,40.76
2017-12-12T11:51:08.240Z,40.74
2017-12-12T11:52:08.340Z,40.75
2017-12-12T11:53:08.808Z,40.73
2017-12-12T11:54:21.010Z,40.68
2017-12-12T11:56:10.258Z,40.67
2017-12-12T11:57:10.868Z,40.65
2017-12-12T11:58:11.176Z,40.64
2017-12-12T11:59:11.681Z,40.63
2017-12-12T12:00:12.125Z,40.60
2017-12-12T12:01:12.626Z,40.59
2017-12-12T12:02:13.069Z,40.56
2017-12-12T12:04:14.214Z,40.59
2017-12-12T12:05:14.507Z,40.59
2017-12-12T12:09:16.382Z,40.50
2017-12-12T12:10:16.872Z,40.47
2017-12-12T12:11:17.340Z,40.42
2017-12-12T12:13:18.283Z,40.41
2017-12-12T12:14:18.923Z,40.39
2017-12-12T12:15:19.262Z,40.39
2017-12-12T12:17:20.183Z,40.38
2017-12-12T12:18:20.665Z,40.36
2017-12-12T12:21:22.110Z,40.33
2017-12-12T12:23:23.028Z,40.30
2017-12-12T12:24:23.496Z,40.31
2017-12-12T12:25:24.009Z,40.33
2017-12-12T12:27:24.924Z,40.31
2017-12-12T12:28:25.432Z,40.31
2017-12-12T12:30:26.349Z,40.31
2017-12-12T12:32:27.298Z,40.36
2017-12-12T12:33:27.797Z,40.36
2017-12-12T12:34:28.246Z,40.38
2017-12-12T12:38:30.175Z,40.39
2017-12-12T12:39:30.629Z,40.39
2017-12-12T12:40:31.252Z,40.42
2017-12-12T12:42:32.041Z,40.53
2017-12-12T12:45:33.488Z,40.61
2017-12-12T12:46:33.962Z,40.61
2017-12-12T12:50:35.849Z,40.70
2017-12-12T12:51:36.312Z,40.72
2017-12-12T12:52:36.780Z,40.70
2017-12-12T12:53:37.291Z,40.65
2017-12-12T12:56:38.688Z,40.55
2017-12-12T12:58:39.627Z,40.52
2017-12-12T12:59:40.132Z,40.60
2017-12-12T13:01:41.089Z,40.65
2017-12-12T13:02:41.525Z,40.68
2017-12-12T13:03:42.010Z,40.76
2017-12-12T13:04:42.506Z,40.78
2017-12-12T13:05:55.100Z,40.78
2017-12-12T13:06:43.598Z,40.79
2017-12-12T13:08:44.406Z,40.78
2017-12-12T13:09:44.849Z,40.84
2017-12-12T13:10:45.355Z,40.91
2017-12-12T13:11:45.966Z,40.91
2017-12-12T13:12:46.277Z,40.86
2017-12-12T13:14:47.217Z,40.88
2017-12-12T13:15:59.085Z,40.84
2017-12-12T13:16:48.203Z,40.84
2017-12-12T13:17:48.813Z,40.79
2017-12-12T13:18:49.123Z,40.78
2017-12-12T13:19:49.599Z,40.79
2017-12-12T13:21:02.057Z,40.72
2017-12-12T13:21:50.543Z,40.74
2017-12-12T13:22:51.054Z,40.74
2017-12-12T13:23:51.498Z,40.69
2017-12-12T13:24:52.001Z,40.71
2017-12-12T13:25:52.439Z,40.68
2017-12-12T13:26:52.927Z,40.65
2017-12-12T13:27:53.426Z,40.64
2017-12-12T13:28:53.861Z,40.63
2017-12-12T13:29:54.334Z,40.64
2017-12-12T13:30:54.984Z,40.63
2017-12-12T13:31:55.460Z,40.62
2017-12-12T13:32:55.787Z,40.58
2017-12-12T13:33:56.292Z,40.57
2017-12-12T13:36:09.108Z,40.52
2017-12-12T13:36:57.655Z,40.55
2017-12-12T13:38:58.634Z,40.60
2017-12-12T13:39:59.086Z,40.58
2017-12-12T13:43:12.126Z,40.57
2017-12-12T13:44:00.983Z,40.54
2017-12-12T13:46:01.934Z,40.48
2017-12-12T13:47:02.405Z,40.46
2017-12-12T13:49:03.346Z,40.52
2017-12-12T13:50:03.828Z,40.52
2017-12-12T13:51:04.463Z,40.48
2017-12-12T13:52:04.783Z,40.44
2017-12-12T13:53:05.245Z,40.42
2017-12-12T13:54:05.725Z,40.37
2017-12-12T13:58:07.622Z,40.19
2017-12-12T13:59:08.095Z,40.16
2017-12-12T14:00:08.597Z,40.12
2017-12-12T14:01:09.036Z,40.12
2017-12-12T14:02:09.518Z,40.11
2017-12-12T14:04:10.850Z,40.04
2017-12-12T14:06:11.809Z,40.02
2017-12-12T14:07:11.884Z,39.99
2017-12-12T14:08:12.748Z,39.96
2017-12-12T14:09:12.853Z,39.91
2017-12-12T14:10:13.301Z,39.88
2017-12-12T14:12:14.417Z,39.78
2017-12-12T14:14:15.196Z,39.79
2017-12-12T14:15:15.846Z,39.75
2017-12-12T14:17:16.624Z,39.77
2017-12-12T14:18:17.089Z,39.74
2017-12-12T14:19:17.571Z,39.69
2017-12-12T14:20:18.074Z,39.69
2017-12-12T14:21:18.544Z,39.68
2017-12-12T14:22:18.993Z,39.66
2017-12-12T14:23:19.465Z,39.66
2017-12-12T14:24:19.937Z,39.62
2017-12-12T14:25:20.405Z,39.61
2017-12-12T14:27:21.523Z,39.54
2017-12-12T14:28:21.831Z,39.52
2017-12-12T14:29:34.312Z,39.49
2017-12-12T14:30:22.771Z,39.42
2017-12-12T14:32:23.750Z,39.33
2017-12-12T14:33:24.853Z,39.27
2017-12-12T14:34:24.672Z,39.24
2017-12-12T14:35:25.146Z,39.24
2017-12-12T14:37:26.092Z,39.17
2017-12-12T14:38:26.568Z,39.14
2017-12-12T14:39:27.309Z,39.12
2017-12-12T14:41:27.986Z,39.04
2017-12-12T14:44:29.403Z,38.87
2017-12-12T14:48:31.301Z,38.72
2017-12-12T14:52:33.189Z,38.54
2017-12-12T14:53:33.656Z,38.51
2017-12-12T14:55:34.606Z,38.47
2017-12-12T14:56:35.081Z,38.45
2017-12-12T14:57:35.553Z,38.42
2017-12-12T14:58:36.246Z,38.36
2017-12-12T14:59:36.496Z,38.37
2017-12-12T15:00:37.007Z,38.34
2017-12-12T15:01:49.181Z,38.31
2017-12-12T15:02:38.082Z,38.27
2017-12-12T15:03:38.391Z,38.23
2017-12-12T15:04:39.022Z,38.21
2017-12-12T15:06:51.182Z,38.11
2017-12-12T15:09:41.249Z,37.99
2017-12-12T15:10:41.696Z,37.95
2017-12-12T15:11:42.159Z,37.94
2017-12-12T15:13:43.537Z,37.97
2017-12-12T15:14:43.592Z,37.97
2017-12-12T15:15:44.051Z,37.99
2017-12-12T15:16:56.177Z,38.03
2017-12-12T15:18:45.746Z,38.05
2017-12-12T15:19:45.946Z,38.06
2017-12-12T15:20:46.419Z,38.07
2017-12-12T15:21:46.895Z,38.06
2017-12-12T15:23:47.836Z,37.94
2017-12-12T15:26:49.245Z,37.87
2017-12-12T15:27:49.723Z,37.82
2017-12-12T15:28:50.195Z,37.77
2017-12-12T15:29:50.659Z,37.75
2017-12-12T15:30:51.139Z,37.75
2017-12-12T15:31:51.609Z,37.73
2017-12-12T15:34:53.035Z,37.68
2017-12-12T15:37:54.442Z,37.54
2017-12-12T15:39:55.376Z,37.49
2017-12-12T15:41:56.780Z,37.43
2017-12-12T15:42:56.828Z,37.40
2017-12-12T15:43:57.289Z,37.36
2017-12-12T15:44:57.741Z,37.34
2017-12-12T15:45:58.215Z,37.35
2017-12-12T15:46:58.678Z,37.33
2017-12-12T15:48:00.017Z,37.30
2017-12-12T15:50:00.092Z,37.26
2017-12-12T15:51:00.580Z,37.24
2017-12-12T15:52:01.221Z,37.21
2017-12-12T15:53:01.513Z,37.21
2017-12-12T15:54:02.030Z,37.19
2017-12-12T15:55:02.450Z,37.21
2017-12-12T15:56:02.920Z,37.24
2017-12-12T15:57:03.396Z,37.24
2017-12-12T15:58:03.862Z,37.21
2017-12-12T15:59:04.337Z,37.20
2017-12-12T16:00:04.804Z,37.20
2017-12-12T16:01:05.277Z,37.17
2017-12-12T16:02:05.751Z,37.18
2017-12-12T16:03:06.218Z,37.18
2017-12-12T16:04:06.690Z,37.18
2017-12-12T16:05:07.159Z,37.22
2017-12-12T16:06:07.632Z,37.25
2017-12-12T16:07:08.104Z,37.28
2017-12-12T16:08:08.572Z,37.31
2017-12-12T16:09:09.047Z,37.36
2017-12-12T16:10:09.519Z,37.40
2017-12-12T16:11:09.986Z,37.42
2017-12-12T16:12:10.457Z,37.44
2017-12-12T16:13:10.929Z,37.43
2017-12-12T16:14:11.399Z,37.40
2017-12-12T16:15:11.871Z,37.42
2017-12-12T16:16:12.341Z,37.41
2017-12-12T16:17:12.812Z,37.41
2017-12-12T16:18:13.282Z,37.43
2017-12-12T16:19:13.753Z,37.48
2017-12-12T16:20:14.224Z,37.51
2017-12-12T16:21:14.695Z,37.54
2017-12-12T16:22:15.166Z,37.56
2017-12-12T16:23:15.641Z,37.62
2017-12-12T16:24:16.106Z,37.64
2017-12-12T16:25:16.578Z,37.65
2017-12-12T16:26:17.048Z,37.68
2017-12-12T16:27:17.519Z,37.67
2017-12-12T16:28:17.990Z,37.68
2017-12-12T16:29:18.460Z,37.71
2017-12-12T16:30:18.938Z,37.68
2017-12-12T16:31:19.402Z,37.71
2017-12-12T16:32:19.872Z,37.68
2017-12-12T16:33:20.344Z,37.74
2017-12-12T16:34:20.814Z,37.75
2017-12-12T16:35:21.284Z,37.73
2017-12-12T16:36:21.754Z,37.73
2017-12-12T16:37:22.224Z,37.74
2017-12-12T16:38:22.698Z,37.73
2017-12-12T16:39:23.166Z,37.71
2017-12-12T16:40:23.637Z,37.70
2017-12-12T16:41:24.107Z,37.67
2017-12-12T16:42:24.577Z,37.69
2017-12-12T16:43:25.048Z,37.67
2017-12-12T16:44:25.516Z,37.67
2017-12-12T16:45:25.994Z,37.70
2017-12-12T16:46:26.626Z,37.71
2017-12-12T16:48:27.447Z,37.72
2017-12-12T16:49:27.876Z,37.71
2017-12-12T16:50:28.346Z,37.72